Podhale (bahama Islands) — C6TX9 — position and weather

sailwx.info

Track history (hours):
 
Tides and Currents Weather Stations Pressure Air Temp Water Temp Dewpoint Dewpoint Depression Visibility Wind Speed Wind Dir Waves Ship Positions

Podhale (bahama Islands)

Last reported at 2015-Aug-30 05:13 UTC. Time now 2015-Sep-05 12:21 UTC.
Position N 39°31' W 032°08'.

Length 190 m; beam 24 m.

Type: Cargo ship. MMSI: 311831000.

Date/timePositionNaut miles runAvg speedWind from/ knotsBaromVisibWave heightAir tempDewpointWater temp
2015-Aug-30 05:13N 39°31' W 032°08'913.1
2015-Aug-30 04:33N 39°34' W 031°58'1312.8
2015-Aug-30 03:34N 39°39' W 031°42'1312.6
2015-Aug-30 02:33N 39°43' W 031°27'1312.5
2015-Aug-30 01:34N 39°48' W 031°12'1312.7
2015-Aug-30 00:31N 39°54' W 030°56'  
2015-Aug-24 20:33N 49°42' W 000°48'1111.2
2015-Aug-24 19:33N 49°37' W 000°33'1010.4
2015-Aug-24 18:33N 49°33' W 000°18'1010.2
2015-Aug-24 17:33N 49°29' W 000°04'7 7.2
2015-Aug-24 16:33N 49°26' E 000°06'1010.5
2015-Aug-24 15:33N 49°27' E 000°23'7 6.8
2015-Aug-24 14:33N 49°28' E 000°33'9 6.0
2015-Aug-24 13:03N 49°31' E 000°46'5 9.0
2015-Aug-24 12:32N 49°27' E 000°49'5 3.9
2015-Aug-24 11:17N 49°28' E 000°56'  
2015-Aug-20 12:23N 49°27' E 000°49'6 6.5
2015-Aug-20 11:25N 49°29' E 000°40'7 8.7
2015-Aug-20 10:33N 49°29' E 000°28'1313.3
2015-Aug-20 09:33N 49°26' E 000°08'1211.8
2015-Aug-20 08:34N 49°29' W 000°09'0 0.2
2015-Aug-20 07:32N 49°29' W 000°09'0 0.0
2015-Aug-20 06:29N 49°29' W 000°09'0 0.0
2015-Aug-20 05:32N 49°29' W 000°09'  
Track history (hours):
 
Tides and Currents Weather Stations Pressure Air Temp Water Temp Dewpoint Dewpoint Depression Visibility Wind Speed Wind Dir Waves Ship Positions

Podhale (bahama Islands)

Last reported at 2015-Aug-30 05:13 UTC. Time now 2015-Sep-05 12:21 UTC.
Position N 39°31' W 032°08'.

Length 190 m; beam 24 m.

Type: Cargo ship. MMSI: 311831000.

Date/timePositionNaut miles runAvg speedWind from/ knotsBaromVisibWave heightAir tempDewpointWater temp
2015-Aug-30 05:13N 39°31' W 032°08'913.1
2015-Aug-30 04:33N 39°34' W 031°58'1312.8
2015-Aug-30 03:34N 39°39' W 031°42'1312.6
2015-Aug-30 02:33N 39°43' W 031°27'1312.5
2015-Aug-30 01:34N 39°48' W 031°12'1312.7
2015-Aug-30 00:31N 39°54' W 030°56'  
2015-Aug-24 20:33N 49°42' W 000°48'1111.2
2015-Aug-24 19:33N 49°37' W 000°33'1010.4
2015-Aug-24 18:33N 49°33' W 000°18'1010.2
2015-Aug-24 17:33N 49°29' W 000°04'7 7.2
2015-Aug-24 16:33N 49°26' E 000°06'1010.5
2015-Aug-24 15:33N 49°27' E 000°23'7 6.8
2015-Aug-24 14:33N 49°28' E 000°33'9 6.0
2015-Aug-24 13:03N 49°31' E 000°46'5 9.0
2015-Aug-24 12:32N 49°27' E 000°49'5 3.9
2015-Aug-24 11:17N 49°28' E 000°56'  
2015-Aug-20 12:23N 49°27' E 000°49'6 6.5
2015-Aug-20 11:25N 49°29' E 000°40'7 8.7
2015-Aug-20 10:33N 49°29' E 000°28'1313.3
2015-Aug-20 09:33N 49°26' E 000°08'1211.8
2015-Aug-20 08:34N 49°29' W 000°09'0 0.2
2015-Aug-20 07:32N 49°29' W 000°09'0 0.0
2015-Aug-20 06:29N 49°29' W 000°09'0 0.0
2015-Aug-20 05:32N 49°29' W 000°09'  

Dump ship's entire track history